Chest Springs, PA (16624)

10:16 AM EST on December 05, 2019 (GMT -0500)
Patton | | Change Station
Active Advisory: Special Statement

Elev 1883 ft 40.61 °N, 78.61 °W | Updated 11 seconds ago

Overcast
Overcast
30 °F
Feels Like 20 °F
N
12.3
Wind Variable Wind from West
Gusts 13.6 mph

Today
High -- | Low -- °F
--% Chance of Precip.
Yesterday
High -- | Low -- °F
Precip. -- in
Pressure 29.95 in
Visibility 2.5 miles
Clouds Overcast 1000 ft
Windchill 20 °F
Dew Point 26 °F
Humidity 86%
Rainfall 0.00 in
Snow Depth Not available.
7:22 AM 4:47 PM
Waxing Gibbous, 63% visible
METAR KJST 051454Z AUTO 26011G19KT 2 1/2SM -SN BR OVC010 M02/M04 A2987 RMK AO2 CIG 006V014 SLP141 P0001 60001 T10221044 53027
Pressure 29.95 in
Visibility 2.5 miles
Clouds Overcast 1000 ft
Windchill 20 °F
Dew Point 26 °F
Humidity 86%
Rainfall 0.00 in
Snow Depth Not available.
7:22 AM 4:47 PM
Waxing Gibbous, 63% visible
METAR KJST 051454Z AUTO 26011G19KT 2 1/2SM -SN BR OVC010 M02/M04 A2987 RMK AO2 CIG 006V014 SLP141 P0001 60001 T10221044 53027

Get Your Daily Forecast Email!

Thanks for signing up!

Be on the lookout for a verification email in your inbox.

You'll start receiving severe weather alerts in your inbox..

×

10-Day Weather Forecast

Almanac

Astronomy

Dec. 05, 2019 Rise Set
Actual Time
Civil Twilight
Nautical Twilight
Astronomical Twilight
Moon
Length of Visible Light
Length of Day
Tomorrow will be .
, % of the Moon is Illuminated

Today's Extremes

State Highs State Lows

Community

WunderPhotos

Category 6

Welcome to Category 6. This is the collective home for Weather Underground's featured writeups by Dr. Jeff Masters (right), Bob Henson (left), Chris Burt, and other regular contributors.

Nearby

Air Quality

  Air Quality AQ Index Pollutant
Not available.

Snow Depth

Station Depth Elevation

Earthquake Activity

City Distance Mag. Time & Date
Minimum magnitude displayed is 2.5.

Coastal Water Temperatures

Place Temperature

Stations

Nearby Weather Stations

Station Location Temp. Windchill Dew Point Humidity Wind Precip. Elev Updated Type
                   

Watches & Warnings

Special Statement
Issued: 10:01 AM EST Dec. 5, 2019 – National Weather Service

... Heavy snow continues through late morning...

Bands of snow showers will continue through mid- morning reducing
visibilities to as low as three quarters of a mile with gusty
winds. Significant accumulations are not expected. Use caution
this morning as untreated surfaces and overpasses may remain
slick.